sensor_id;sensor_type;location;lat;lon;timestamp;temperature;humidity
36924;DHT22;22841;50.252;18.688;2022-12-18T00:01:05;-3.90;99.90
36924;DHT22;22841;50.252;18.688;2022-12-18T00:03:35;-3.90;99.90
36924;DHT22;22841;50.252;18.688;2022-12-18T00:06:02;-3.90;99.90
36924;DHT22;22841;50.252;18.688;2022-12-18T00:08:28;-4.00;99.90
36924;DHT22;22841;50.252;18.688;2022-12-18T00:10:54;-3.90;99.90
36924;DHT22;22841;50.252;18.688;2022-12-18T00:13:20;-3.90;99.90
36924;DHT22;22841;50.252;18.688;2022-12-18T00:15:46;-3.90;99.90
36924;DHT22;22841;50.252;18.688;2022-12-18T00:18:12;-3.90;99.90
36924;DHT22;22841;50.252;18.688;2022-12-18T00:20:39;-4.00;99.90
36924;DHT22;22841;50.252;18.688;2022-12-18T00:23:06;-4.00;99.90
36924;DHT22;22841;50.252;18.688;2022-12-18T00:25:34;-4.00;99.90
36924;DHT22;22841;50.252;18.688;2022-12-18T00:28:01;-4.00;99.90
36924;DHT22;22841;50.252;18.688;2022-12-18T00:30:28;-3.90;99.90
36924;DHT22;22841;50.252;18.688;2022-12-18T00:32:54;-3.90;99.90
36924;DHT22;22841;50.252;18.688;2022-12-18T00:35:20;-3.80;99.90
36924;DHT22;22841;50.252;18.688;2022-12-18T00:37:46;-3.90;99.90
36924;DHT22;22841;50.252;18.688;2022-12-18T00:40:13;-3.90;99.90
36924;DHT22;22841;50.252;18.688;2022-12-18T00:42:39;-3.90;99.90
36924;DHT22;22841;50.252;18.688;2022-12-18T00:45:25;-3.90;99.90
36924;DHT22;22841;50.252;18.688;2022-12-18T00:47:51;-3.80;99.90
36924;DHT22;22841;50.252;18.688;2022-12-18T00:50:17;-3.80;99.90
36924;DHT22;22841;50.252;18.688;2022-12-18T00:52:44;-3.90;99.90
36924;DHT22;22841;50.252;18.688;2022-12-18T00:55:10;-3.80;99.90
36924;DHT22;22841;50.252;18.688;2022-12-18T00:57:36;-3.80;99.90
36924;DHT22;22841;50.252;18.688;2022-12-18T01:00:04;-3.90;99.90
36924;DHT22;22841;50.252;18.688;2022-12-18T01:02:30;-3.80;99.90
36924;DHT22;22841;50.252;18.688;2022-12-18T01:04:56;-3.80;99.90
36924;DHT22;22841;50.252;18.688;2022-12-18T01:07:22;-3.80;99.90
36924;DHT22;22841;50.252;18.688;2022-12-18T01:09:48;-3.80;99.90
36924;DHT22;22841;50.252;18.688;2022-12-18T01:12:15;-3.80;99.90
36924;DHT22;22841;50.252;18.688;2022-12-18T01:14:41;-3.70;99.90
36924;DHT22;22841;50.252;18.688;2022-12-18T01:17:07;-3.80;99.90
36924;DHT22;22841;50.252;18.688;2022-12-18T01:19:33;-3.70;99.90
36924;DHT22;22841;50.252;18.688;2022-12-18T01:21:59;-3.70;99.90
36924;DHT22;22841;50.252;18.688;2022-12-18T01:24:25;-3.80;99.90
36924;DHT22;22841;50.252;18.688;2022-12-18T01:26:51;-3.80;99.90
36924;DHT22;22841;50.252;18.688;2022-12-18T01:29:17;-3.70;99.90
36924;DHT22;22841;50.252;18.688;2022-12-18T01:31:44;-3.70;99.90
36924;DHT22;22841;50.252;18.688;2022-12-18T01:34:10;-3.70;99.90
36924;DHT22;22841;50.252;18.688;2022-12-18T01:36:37;-3.80;99.90
36924;DHT22;22841;50.252;18.688;2022-12-18T01:39:07;-3.80;99.90
36924;DHT22;22841;50.252;18.688;2022-12-18T01:41:34;-3.80;99.90
36924;DHT22;22841;50.252;18.688;2022-12-18T01:49:47;-3.70;99.90
36924;DHT22;22841;50.252;18.688;2022-12-18T01:52:14;-3.80;99.90
36924;DHT22;22841;50.252;18.688;2022-12-18T01:54:41;-3.80;99.90
36924;DHT22;22841;50.252;18.688;2022-12-18T01:57:07;-3.90;99.90
36924;DHT22;22841;50.252;18.688;2022-12-18T01:59:33;-3.80;99.90
36924;DHT22;22841;50.252;18.688;2022-12-18T02:02:01;-3.80;99.90
36924;DHT22;22841;50.252;18.688;2022-12-18T02:04:28;-3.80;99.90
36924;DHT22;22841;50.252;18.688;2022-12-18T02:07:06;-3.90;99.90
36924;DHT22;22841;50.252;18.688;2022-12-18T02:12:34;-3.90;99.90
36924;DHT22;22841;50.252;18.688;2022-12-18T02:17:34;-3.90;99.90
36924;DHT22;22841;50.252;18.688;2022-12-18T02:23:04;-3.80;99.90
36924;DHT22;22841;50.252;18.688;2022-12-18T02:28:21;-3.80;99.90
36924;DHT22;22841;50.252;18.688;2022-12-18T02:30:50;-3.80;99.90
36924;DHT22;22841;50.252;18.688;2022-12-18T02:33:19;-3.70;99.90
36924;DHT22;22841;50.252;18.688;2022-12-18T02:35:47;-3.80;99.90
36924;DHT22;22841;50.252;18.688;2022-12-18T02:38:15;-3.70;99.90
36924;DHT22;22841;50.252;18.688;2022-12-18T02:40:42;-3.70;99.90
36924;DHT22;22841;50.252;18.688;2022-12-18T02:43:14;-3.80;99.90
36924;DHT22;22841;50.252;18.688;2022-12-18T02:45:54;-3.80;99.90
36924;DHT22;22841;50.252;18.688;2022-12-18T02:48:24;-3.90;99.90
36924;DHT22;22841;50.252;18.688;2022-12-18T02:53:37;-4.00;99.90
36924;DHT22;22841;50.252;18.688;2022-12-18T02:56:13;-3.90;99.90
36924;DHT22;22841;50.252;18.688;2022-12-18T02:58:59;-3.90;99.90
36924;DHT22;22841;50.252;18.688;2022-12-18T03:02:33;-3.90;99.90
36924;DHT22;22841;50.252;18.688;2022-12-18T03:04:43;-3.90;99.90
36924;DHT22;22841;50.252;18.688;2022-12-18T03:07:18;-3.90;99.90
36924;DHT22;22841;50.252;18.688;2022-12-18T03:09:49;-4.00;99.90
36924;DHT22;22841;50.252;18.688;2022-12-18T03:12:32;-3.90;99.90
36924;DHT22;22841;50.252;18.688;2022-12-18T03:15:18;-4.00;99.90
36924;DHT22;22841;50.252;18.688;2022-12-18T03:17:51;-4.00;99.90
36924;DHT22;22841;50.252;18.688;2022-12-18T03:20:20;-4.00;99.90
36924;DHT22;22841;50.252;18.688;2022-12-18T03:22:51;-4.10;99.90
36924;DHT22;22841;50.252;18.688;2022-12-18T03:25:19;-4.00;99.90
36924;DHT22;22841;50.252;18.688;2022-12-18T03:27:51;-4.10;99.90
36924;DHT22;22841;50.252;18.688;2022-12-18T03:30:20;-4.10;99.90
36924;DHT22;22841;50.252;18.688;2022-12-18T03:33:05;-4.00;99.90
36924;DHT22;22841;50.252;18.688;2022-12-18T03:35:36;-4.00;99.90
36924;DHT22;22841;50.252;18.688;2022-12-18T03:38:03;-4.00;99.90
36924;DHT22;22841;50.252;18.688;2022-12-18T03:43:23;-4.00;99.90
36924;DHT22;22841;50.252;18.688;2022-12-18T03:46:02;-4.10;99.90
36924;DHT22;22841;50.252;18.688;2022-12-18T03:48:37;-4.00;99.90
36924;DHT22;22841;50.252;18.688;2022-12-18T03:51:35;-4.00;99.90
36924;DHT22;22841;50.252;18.688;2022-12-18T03:54:02;-4.00;99.90
36924;DHT22;22841;50.252;18.688;2022-12-18T03:56:32;-4.00;99.90
36924;DHT22;22841;50.252;18.688;2022-12-18T03:59:00;-3.90;99.90
36924;DHT22;22841;50.252;18.688;2022-12-18T04:01:38;-3.90;99.90
36924;DHT22;22841;50.252;18.688;2022-12-18T04:04:06;-4.00;99.90
36924;DHT22;22841;50.252;18.688;2022-12-18T04:06:34;-4.00;99.90
36924;DHT22;22841;50.252;18.688;2022-12-18T04:09:01;-3.90;99.90
36924;DHT22;22841;50.252;18.688;2022-12-18T04:11:27;-4.10;99.90
36924;DHT22;22841;50.252;18.688;2022-12-18T04:13:57;-4.00;99.90
36924;DHT22;22841;50.252;18.688;2022-12-18T04:16:25;-4.00;99.90
36924;DHT22;22841;50.252;18.688;2022-12-18T04:18:51;-4.00;99.90
36924;DHT22;22841;50.252;18.688;2022-12-18T04:21:18;-4.10;99.90
36924;DHT22;22841;50.252;18.688;2022-12-18T04:23:44;-4.10;99.90
36924;DHT22;22841;50.252;18.688;2022-12-18T04:26:10;-4.10;99.90
36924;DHT22;22841;50.252;18.688;2022-12-18T04:28:36;-4.10;99.90
36924;DHT22;22841;50.252;18.688;2022-12-18T04:31:04;-4.20;99.90
36924;DHT22;22841;50.252;18.688;2022-12-18T04:33:30;-4.20;99.90
36924;DHT22;22841;50.252;18.688;2022-12-18T04:35:56;-4.20;99.90
36924;DHT22;22841;50.252;18.688;2022-12-18T04:38:22;-4.20;99.90
36924;DHT22;22841;50.252;18.688;2022-12-18T04:40:48;-4.10;99.90
36924;DHT22;22841;50.252;18.688;2022-12-18T04:43:14;-4.10;99.90
36924;DHT22;22841;50.252;18.688;2022-12-18T04:45:40;-4.10;99.90
36924;DHT22;22841;50.252;18.688;2022-12-18T04:48:06;-4.10;99.90
36924;DHT22;22841;50.252;18.688;2022-12-18T04:50:32;-4.10;99.90
36924;DHT22;22841;50.252;18.688;2022-12-18T04:52:59;-4.10;99.90
36924;DHT22;22841;50.252;18.688;2022-12-18T04:55:25;-4.10;99.90
36924;DHT22;22841;50.252;18.688;2022-12-18T04:57:51;-4.00;99.90
36924;DHT22;22841;50.252;18.688;2022-12-18T05:00:18;-4.10;99.90
36924;DHT22;22841;50.252;18.688;2022-12-18T05:02:44;-4.10;99.90
36924;DHT22;22841;50.252;18.688;2022-12-18T05:05:10;-4.10;99.90
36924;DHT22;22841;50.252;18.688;2022-12-18T05:07:36;-4.20;99.90
36924;DHT22;22841;50.252;18.688;2022-12-18T05:10:06;-4.20;99.90
36924;DHT22;22841;50.252;18.688;2022-12-18T05:12:32;-4.20;99.90
36924;DHT22;22841;50.252;18.688;2022-12-18T05:14:58;-4.20;99.90
36924;DHT22;22841;50.252;18.688;2022-12-18T05:17:24;-4.20;99.90
36924;DHT22;22841;50.252;18.688;2022-12-18T05:19:50;-4.20;99.90
36924;DHT22;22841;50.252;18.688;2022-12-18T05:22:16;-4.20;99.90
36924;DHT22;22841;50.252;18.688;2022-12-18T05:24:43;-4.20;99.90
36924;DHT22;22841;50.252;18.688;2022-12-18T05:27:09;-4.30;99.90
36924;DHT22;22841;50.252;18.688;2022-12-18T05:29:35;-4.30;99.90
36924;DHT22;22841;50.252;18.688;2022-12-18T05:32:01;-4.20;99.90
36924;DHT22;22841;50.252;18.688;2022-12-18T05:34:27;-4.20;99.90
36924;DHT22;22841;50.252;18.688;2022-12-18T05:36:53;-4.20;99.90
36924;DHT22;22841;50.252;18.688;2022-12-18T05:39:19;-4.20;99.90
36924;DHT22;22841;50.252;18.688;2022-12-18T05:41:45;-4.20;99.90
36924;DHT22;22841;50.252;18.688;2022-12-18T05:44:11;-4.10;99.90
36924;DHT22;22841;50.252;18.688;2022-12-18T05:46:37;-4.10;99.90
36924;DHT22;22841;50.252;18.688;2022-12-18T05:49:09;-4.10;99.90
36924;DHT22;22841;50.252;18.688;2022-12-18T05:51:35;-4.00;99.90
36924;DHT22;22841;50.252;18.688;2022-12-18T05:54:01;-4.10;99.90
36924;DHT22;22841;50.252;18.688;2022-12-18T05:56:27;-4.10;99.90
36924;DHT22;22841;50.252;18.688;2022-12-18T05:58:54;-4.10;99.90
36924;DHT22;22841;50.252;18.688;2022-12-18T06:01:24;-4.20;99.90
36924;DHT22;22841;50.252;18.688;2022-12-18T06:03:50;-4.30;99.90
36924;DHT22;22841;50.252;18.688;2022-12-18T06:06:19;-4.20;99.90
36924;DHT22;22841;50.252;18.688;2022-12-18T06:08:46;-4.10;99.90
36924;DHT22;22841;50.252;18.688;2022-12-18T06:11:13;-4.10;99.90
36924;DHT22;22841;50.252;18.688;2022-12-18T06:13:41;-4.10;99.90
36924;DHT22;22841;50.252;18.688;2022-12-18T06:16:07;-4.10;99.90
36924;DHT22;22841;50.252;18.688;2022-12-18T06:18:36;-4.10;99.90
36924;DHT22;22841;50.252;18.688;2022-12-18T06:21:03;-4.20;99.90
36924;DHT22;22841;50.252;18.688;2022-12-18T06:23:29;-4.20;99.90
36924;DHT22;22841;50.252;18.688;2022-12-18T06:25:55;-4.20;99.90
36924;DHT22;22841;50.252;18.688;2022-12-18T06:28:21;-4.10;99.90
36924;DHT22;22841;50.252;18.688;2022-12-18T06:30:48;-4.10;99.90
36924;DHT22;22841;50.252;18.688;2022-12-18T06:33:15;-4.10;99.90
36924;DHT22;22841;50.252;18.688;2022-12-18T06:35:41;-4.20;99.90
36924;DHT22;22841;50.252;18.688;2022-12-18T06:38:08;-4.20;99.90
36924;DHT22;22841;50.252;18.688;2022-12-18T06:40:34;-4.10;99.90
36924;DHT22;22841;50.252;18.688;2022-12-18T06:43:00;-4.10;99.90
36924;DHT22;22841;50.252;18.688;2022-12-18T06:45:26;-4.20;99.90
36924;DHT22;22841;50.252;18.688;2022-12-18T06:47:52;-4.20;99.90
36924;DHT22;22841;50.252;18.688;2022-12-18T06:50:18;-4.20;99.90
36924;DHT22;22841;50.252;18.688;2022-12-18T06:52:44;-4.20;99.90
36924;DHT22;22841;50.252;18.688;2022-12-18T06:55:11;-4.10;99.90
36924;DHT22;22841;50.252;18.688;2022-12-18T06:57:37;-4.20;99.90
36924;DHT22;22841;50.252;18.688;2022-12-18T07:00:05;-4.20;99.90
36924;DHT22;22841;50.252;18.688;2022-12-18T07:02:32;-4.20;99.90
36924;DHT22;22841;50.252;18.688;2022-12-18T07:04:58;-4.20;99.90
36924;DHT22;22841;50.252;18.688;2022-12-18T07:07:24;-4.20;99.90
36924;DHT22;22841;50.252;18.688;2022-12-18T07:09:51;-4.20;99.90
36924;DHT22;22841;50.252;18.688;2022-12-18T07:12:17;-4.20;99.90
36924;DHT22;22841;50.252;18.688;2022-12-18T07:14:43;-4.10;99.90
36924;DHT22;22841;50.252;18.688;2022-12-18T07:17:09;-4.00;99.90
36924;DHT22;22841;50.252;18.688;2022-12-18T07:19:35;-4.10;99.90
36924;DHT22;22841;50.252;18.688;2022-12-18T07:22:02;-4.10;99.90
36924;DHT22;22841;50.252;18.688;2022-12-18T07:24:28;-4.00;99.90
36924;DHT22;22841;50.252;18.688;2022-12-18T07:26:54;-4.00;99.90
36924;DHT22;22841;50.252;18.688;2022-12-18T07:29:20;-4.00;99.90
36924;DHT22;22841;50.252;18.688;2022-12-18T07:31:46;-4.00;99.90
36924;DHT22;22841;50.252;18.688;2022-12-18T07:34:13;-4.00;99.90
36924;DHT22;22841;50.252;18.688;2022-12-18T07:36:41;-4.00;99.90
36924;DHT22;22841;50.252;18.688;2022-12-18T07:39:07;-3.90;99.90
36924;DHT22;22841;50.252;18.688;2022-12-18T07:41:33;-3.90;99.90
36924;DHT22;22841;50.252;18.688;2022-12-18T07:43:59;-3.80;99.90
36924;DHT22;22841;50.252;18.688;2022-12-18T07:46:25;-3.90;99.90
36924;DHT22;22841;50.252;18.688;2022-12-18T07:48:51;-3.90;99.90
36924;DHT22;22841;50.252;18.688;2022-12-18T07:51:18;-3.90;99.90
36924;DHT22;22841;50.252;18.688;2022-12-18T07:53:44;-3.90;99.90
36924;DHT22;22841;50.252;18.688;2022-12-18T07:56:11;-3.90;99.90
36924;DHT22;22841;50.252;18.688;2022-12-18T07:58:38;-4.00;99.90
36924;DHT22;22841;50.252;18.688;2022-12-18T08:01:07;-3.90;99.90
36924;DHT22;22841;50.252;18.688;2022-12-18T08:03:34;-4.00;99.90
36924;DHT22;22841;50.252;18.688;2022-12-18T08:06:01;-4.00;99.90
36924;DHT22;22841;50.252;18.688;2022-12-18T08:08:28;-4.00;99.90
36924;DHT22;22841;50.252;18.688;2022-12-18T08:10:54;-3.90;99.90
36924;DHT22;22841;50.252;18.688;2022-12-18T08:13:21;-4.00;99.90
36924;DHT22;22841;50.252;18.688;2022-12-18T08:15:56;-3.90;99.90
36924;DHT22;22841;50.252;18.688;2022-12-18T08:18:22;-4.00;99.90
36924;DHT22;22841;50.252;18.688;2022-12-18T08:20:49;-4.00;99.90
36924;DHT22;22841;50.252;18.688;2022-12-18T08:23:15;-4.00;99.90
36924;DHT22;22841;50.252;18.688;2022-12-18T08:25:41;-4.00;99.90
36924;DHT22;22841;50.252;18.688;2022-12-18T08:28:07;-4.00;99.90
36924;DHT22;22841;50.252;18.688;2022-12-18T08:30:33;-4.00;99.90
36924;DHT22;22841;50.252;18.688;2022-12-18T08:32:59;-4.00;99.90
36924;DHT22;22841;50.252;18.688;2022-12-18T08:35:25;-4.00;99.90
36924;DHT22;22841;50.252;18.688;2022-12-18T08:37:51;-4.10;99.90
36924;DHT22;22841;50.252;18.688;2022-12-18T08:40:17;-4.10;99.90
36924;DHT22;22841;50.252;18.688;2022-12-18T08:42:43;-4.10;99.90
36924;DHT22;22841;50.252;18.688;2022-12-18T08:45:28;-4.10;99.90
36924;DHT22;22841;50.252;18.688;2022-12-18T08:47:54;-4.10;99.90
36924;DHT22;22841;50.252;18.688;2022-12-18T08:50:20;-4.10;99.90
36924;DHT22;22841;50.252;18.688;2022-12-18T08:52:46;-4.00;99.90
36924;DHT22;22841;50.252;18.688;2022-12-18T08:55:12;-4.10;99.90
36924;DHT22;22841;50.252;18.688;2022-12-18T08:57:38;-4.10;99.90
36924;DHT22;22841;50.252;18.688;2022-12-18T09:00:04;-4.10;99.90
36924;DHT22;22841;50.252;18.688;2022-12-18T09:02:31;-4.10;99.90
36924;DHT22;22841;50.252;18.688;2022-12-18T09:04:57;-4.10;99.90
36924;DHT22;22841;50.252;18.688;2022-12-18T09:07:23;-4.10;99.90
36924;DHT22;22841;50.252;18.688;2022-12-18T09:09:49;-4.00;99.90
36924;DHT22;22841;50.252;18.688;2022-12-18T09:12:15;-4.00;99.90
36924;DHT22;22841;50.252;18.688;2022-12-18T09:14:41;-4.10;99.90
36924;DHT22;22841;50.252;18.688;2022-12-18T09:17:07;-4.10;99.90
36924;DHT22;22841;50.252;18.688;2022-12-18T09:19:33;-4.00;99.90
36924;DHT22;22841;50.252;18.688;2022-12-18T09:21:59;-4.00;99.90
36924;DHT22;22841;50.252;18.688;2022-12-18T09:24:25;-4.00;99.90
36924;DHT22;22841;50.252;18.688;2022-12-18T09:26:54;-4.00;99.90
36924;DHT22;22841;50.252;18.688;2022-12-18T09:29:21;-4.00;99.90
36924;DHT22;22841;50.252;18.688;2022-12-18T09:31:47;-3.90;99.90
36924;DHT22;22841;50.252;18.688;2022-12-18T09:34:13;-3.90;99.90
36924;DHT22;22841;50.252;18.688;2022-12-18T09:36:39;-3.90;99.90
36924;DHT22;22841;50.252;18.688;2022-12-18T09:39:05;-3.80;99.90
36924;DHT22;22841;50.252;18.688;2022-12-18T09:46:40;-3.80;99.90
36924;DHT22;22841;50.252;18.688;2022-12-18T09:49:16;-3.80;99.90
36924;DHT22;22841;50.252;18.688;2022-12-18T09:51:49;-3.80;99.90
36924;DHT22;22841;50.252;18.688;2022-12-18T09:54:21;-3.80;99.90
36924;DHT22;22841;50.252;18.688;2022-12-18T09:56:48;-3.80;99.90
36924;DHT22;22841;50.252;18.688;2022-12-18T09:59:20;-3.80;99.90
36924;DHT22;22841;50.252;18.688;2022-12-18T10:01:47;-3.70;99.90
36924;DHT22;22841;50.252;18.688;2022-12-18T10:04:13;-3.70;99.90
36924;DHT22;22841;50.252;18.688;2022-12-18T10:07:02;-3.70;99.90
36924;DHT22;22841;50.252;18.688;2022-12-18T10:14:53;-3.70;99.90
36924;DHT22;22841;50.252;18.688;2022-12-18T10:17:33;-3.80;99.90
36924;DHT22;22841;50.252;18.688;2022-12-18T10:20:03;-3.80;99.90
36924;DHT22;22841;50.252;18.688;2022-12-18T10:25:21;-3.90;99.90
36924;DHT22;22841;50.252;18.688;2022-12-18T10:27:53;-3.90;99.90
36924;DHT22;22841;50.252;18.688;2022-12-18T10:30:22;-3.90;99.90
36924;DHT22;22841;50.252;18.688;2022-12-18T10:32:48;-3.90;99.90
36924;DHT22;22841;50.252;18.688;2022-12-18T10:35:19;-4.10;99.90
36924;DHT22;22841;50.252;18.688;2022-12-18T10:38:07;-4.20;99.90
36924;DHT22;22841;50.252;18.688;2022-12-18T10:43:19;-4.00;99.90
36924;DHT22;22841;50.252;18.688;2022-12-18T10:45:58;-3.90;99.90
36924;DHT22;22841;50.252;18.688;2022-12-18T10:48:26;-3.80;99.90
36924;DHT22;22841;50.252;18.688;2022-12-18T10:50:53;-3.70;99.90
36924;DHT22;22841;50.252;18.688;2022-12-18T10:53:25;-3.80;99.90
36924;DHT22;22841;50.252;18.688;2022-12-18T10:55:54;-4.00;99.90
36924;DHT22;22841;50.252;18.688;2022-12-18T11:01:13;-4.00;99.90
36924;DHT22;22841;50.252;18.688;2022-12-18T11:03:59;-4.00;99.90
36924;DHT22;22841;50.252;18.688;2022-12-18T11:06:26;-3.90;99.90
36924;DHT22;22841;50.252;18.688;2022-12-18T11:09:04;-3.90;99.90
36924;DHT22;22841;50.252;18.688;2022-12-18T11:11:32;-4.00;99.90
36924;DHT22;22841;50.252;18.688;2022-12-18T11:14:06;-4.00;99.90
36924;DHT22;22841;50.252;18.688;2022-12-18T11:16:59;-3.90;99.90
36924;DHT22;22841;50.252;18.688;2022-12-18T11:19:40;-3.90;99.90
36924;DHT22;22841;50.252;18.688;2022-12-18T11:22:25;-4.00;99.90
36924;DHT22;22841;50.252;18.688;2022-12-18T11:25:02;-4.00;99.90
36924;DHT22;22841;50.252;18.688;2022-12-18T11:27:28;-4.10;99.90
36924;DHT22;22841;50.252;18.688;2022-12-18T11:32:48;-4.20;99.90
36924;DHT22;22841;50.252;18.688;2022-12-18T11:35:22;-4.20;99.90
36924;DHT22;22841;50.252;18.688;2022-12-18T11:37:54;-4.30;99.90
36924;DHT22;22841;50.252;18.688;2022-12-18T11:40:44;-4.30;99.90
36924;DHT22;22841;50.252;18.688;2022-12-18T11:43:29;-4.30;99.90
36924;DHT22;22841;50.252;18.688;2022-12-18T11:46:23;-4.30;99.90
36924;DHT22;22841;50.252;18.688;2022-12-18T11:48:54;-4.30;99.90
36924;DHT22;22841;50.252;18.688;2022-12-18T11:51:34;-4.30;99.90
36924;DHT22;22841;50.252;18.688;2022-12-18T11:54:04;-4.30;99.90
36924;DHT22;22841;50.252;18.688;2022-12-18T11:56:36;-4.20;99.90
36924;DHT22;22841;50.252;18.688;2022-12-18T12:04:58;-4.20;99.90
36924;DHT22;22841;50.252;18.688;2022-12-18T12:10:45;-4.10;99.90
36924;DHT22;22841;50.252;18.688;2022-12-18T12:13:34;-4.00;99.90
36924;DHT22;22841;50.252;18.688;2022-12-18T12:21:40;-4.00;99.90
36924;DHT22;22841;50.252;18.688;2022-12-18T12:27:43;-4.00;99.90
36924;DHT22;22841;50.252;18.688;2022-12-18T12:30:06;-4.10;99.90
36924;DHT22;22841;50.252;18.688;2022-12-18T12:32:59;-4.00;99.90
36924;DHT22;22841;50.252;18.688;2022-12-18T12:38:25;-3.90;99.90
36924;DHT22;22841;50.252;18.688;2022-12-18T12:41:05;-3.90;99.90
36924;DHT22;22841;50.252;18.688;2022-12-18T12:43:37;-3.90;99.90
36924;DHT22;22841;50.252;18.688;2022-12-18T12:46:13;-4.00;99.90
36924;DHT22;22841;50.252;18.688;2022-12-18T12:48:58;-3.90;99.90
36924;DHT22;22841;50.252;18.688;2022-12-18T12:51:37;-3.90;99.90
36924;DHT22;22841;50.252;18.688;2022-12-18T12:54:10;-3.90;99.90
36924;DHT22;22841;50.252;18.688;2022-12-18T13:01:54;-4.00;99.90
36924;DHT22;22841;50.252;18.688;2022-12-18T13:07:27;-4.00;99.90
36924;DHT22;22841;50.252;18.688;2022-12-18T13:10:25;-4.00;99.90
36924;DHT22;22841;50.252;18.688;2022-12-18T13:20:41;-4.00;99.90
36924;DHT22;22841;50.252;18.688;2022-12-18T13:31:15;-4.10;99.90
36924;DHT22;22841;50.252;18.688;2022-12-18T13:34:16;-4.10;99.90
36924;DHT22;22841;50.252;18.688;2022-12-18T13:36:43;-4.10;99.90
36924;DHT22;22841;50.252;18.688;2022-12-18T13:39:11;-4.20;99.90
36924;DHT22;22841;50.252;18.688;2022-12-18T13:41:37;-4.20;99.90
36924;DHT22;22841;50.252;18.688;2022-12-18T13:44:12;-4.20;99.90
36924;DHT22;22841;50.252;18.688;2022-12-18T13:46:44;-4.20;99.90
36924;DHT22;22841;50.252;18.688;2022-12-18T13:49:20;-4.20;99.90
36924;DHT22;22841;50.252;18.688;2022-12-18T13:51:49;-4.20;99.90
36924;DHT22;22841;50.252;18.688;2022-12-18T13:54:39;-4.20;99.90
36924;DHT22;22841;50.252;18.688;2022-12-18T13:57:28;-4.20;99.90
36924;DHT22;22841;50.252;18.688;2022-12-18T13:59:56;-4.40;99.90
36924;DHT22;22841;50.252;18.688;2022-12-18T14:02:24;-4.40;99.90
36924;DHT22;22841;50.252;18.688;2022-12-18T14:04:52;-4.50;99.90
36924;DHT22;22841;50.252;18.688;2022-12-18T14:07:22;-4.60;99.90
36924;DHT22;22841;50.252;18.688;2022-12-18T14:09:56;-4.60;99.90
36924;DHT22;22841;50.252;18.688;2022-12-18T14:12:28;-4.70;99.20
36924;DHT22;22841;50.252;18.688;2022-12-18T14:20:20;-4.80;98.10
36924;DHT22;22841;50.252;18.688;2022-12-18T14:22:48;-4.80;97.70
36924;DHT22;22841;50.252;18.688;2022-12-18T14:25:20;-4.90;96.80
36924;DHT22;22841;50.252;18.688;2022-12-18T14:27:53;-5.00;95.70
36924;DHT22;22841;50.252;18.688;2022-12-18T14:30:33;-5.10;95.40
36924;DHT22;22841;50.252;18.688;2022-12-18T14:35:32;-5.20;95.20
36924;DHT22;22841;50.252;18.688;2022-12-18T14:40:59;-5.50;94.40
36924;DHT22;22841;50.252;18.688;2022-12-18T14:43:31;-5.50;95.00
36924;DHT22;22841;50.252;18.688;2022-12-18T14:45:57;-5.60;94.60
36924;DHT22;22841;50.252;18.688;2022-12-18T14:48:36;-5.70;94.40
36924;DHT22;22841;50.252;18.688;2022-12-18T14:53:39;-5.80;94.50
36924;DHT22;22841;50.252;18.688;2022-12-18T14:56:33;-5.90;94.40
36924;DHT22;22841;50.252;18.688;2022-12-18T14:59:06;-6.00;94.30
36924;DHT22;22841;50.252;18.688;2022-12-18T15:01:44;-6.00;94.00
36924;DHT22;22841;50.252;18.688;2022-12-18T15:09:37;-6.00;92.10
36924;DHT22;22841;50.252;18.688;2022-12-18T15:12:04;-6.20;91.40
36924;DHT22;22841;50.252;18.688;2022-12-18T15:16:58;-6.30;91.30
36924;DHT22;22841;50.252;18.688;2022-12-18T15:19:45;-6.40;91.10
36924;DHT22;22841;50.252;18.688;2022-12-18T15:22:35;-6.50;90.80
36924;DHT22;22841;50.252;18.688;2022-12-18T15:25:04;-6.50;90.80
36924;DHT22;22841;50.252;18.688;2022-12-18T15:28:00;-6.60;90.70
36924;DHT22;22841;50.252;18.688;2022-12-18T15:30:26;-6.60;90.50
36924;DHT22;22841;50.252;18.688;2022-12-18T15:33:25;-6.70;89.70
36924;DHT22;22841;50.252;18.688;2022-12-18T15:35:59;-6.80;90.30
36924;DHT22;22841;50.252;18.688;2022-12-18T15:38:26;-6.90;90.70
36924;DHT22;22841;50.252;18.688;2022-12-18T15:40:53;-6.90;90.80
36924;DHT22;22841;50.252;18.688;2022-12-18T15:43:23;-6.90;90.90
36924;DHT22;22841;50.252;18.688;2022-12-18T15:46:04;-6.90;90.90
36924;DHT22;22841;50.252;18.688;2022-12-18T15:48:34;-6.90;90.60
36924;DHT22;22841;50.252;18.688;2022-12-18T15:51:01;-7.00;90.10
36924;DHT22;22841;50.252;18.688;2022-12-18T15:53:32;-7.10;90.50
36924;DHT22;22841;50.252;18.688;2022-12-18T15:55:59;-7.20;90.30
36924;DHT22;22841;50.252;18.688;2022-12-18T15:58:44;-7.10;90.30
36924;DHT22;22841;50.252;18.688;2022-12-18T16:01:11;-7.20;88.20
36924;DHT22;22841;50.252;18.688;2022-12-18T16:03:37;-7.20;88.50
36924;DHT22;22841;50.252;18.688;2022-12-18T16:06:03;-7.20;89.60
36924;DHT22;22841;50.252;18.688;2022-12-18T16:08:30;-7.30;90.00
36924;DHT22;22841;50.252;18.688;2022-12-18T16:10:57;-7.30;89.30
36924;DHT22;22841;50.252;18.688;2022-12-18T16:13:23;-7.40;88.80
36924;DHT22;22841;50.252;18.688;2022-12-18T16:15:49;-7.50;88.70
36924;DHT22;22841;50.252;18.688;2022-12-18T16:18:15;-7.50;89.30
36924;DHT22;22841;50.252;18.688;2022-12-18T16:20:41;-7.60;90.10
36924;DHT22;22841;50.252;18.688;2022-12-18T16:23:07;-7.60;90.00
36924;DHT22;22841;50.252;18.688;2022-12-18T16:25:34;-7.70;88.80
36924;DHT22;22841;50.252;18.688;2022-12-18T16:28:00;-7.60;88.50
36924;DHT22;22841;50.252;18.688;2022-12-18T16:30:28;-7.70;86.10
36924;DHT22;22841;50.252;18.688;2022-12-18T16:32:57;-7.80;86.00
36924;DHT22;22841;50.252;18.688;2022-12-18T16:35:26;-7.80;87.20
36924;DHT22;22841;50.252;18.688;2022-12-18T16:37:52;-7.80;86.40
36924;DHT22;22841;50.252;18.688;2022-12-18T16:40:18;-7.70;84.00
36924;DHT22;22841;50.252;18.688;2022-12-18T16:42:45;-7.80;81.90
36924;DHT22;22841;50.252;18.688;2022-12-18T16:45:37;-7.80;81.60
36924;DHT22;22841;50.252;18.688;2022-12-18T16:48:04;-7.80;81.00
36924;DHT22;22841;50.252;18.688;2022-12-18T16:51:08;-8.00;80.40
36924;DHT22;22841;50.252;18.688;2022-12-18T16:53:35;-8.00;79.40
36924;DHT22;22841;50.252;18.688;2022-12-18T16:56:01;-8.10;79.00
36924;DHT22;22841;50.252;18.688;2022-12-18T16:58:31;-8.00;78.70
36924;DHT22;22841;50.252;18.688;2022-12-18T17:04:16;-8.30;25.40
36924;DHT22;22841;50.252;18.688;2022-12-18T17:06:44;-8.20;1.00
36924;DHT22;22841;50.252;18.688;2022-12-18T17:09:12;-8.40;1.00
36924;DHT22;22841;50.252;18.688;2022-12-18T17:11:42;-8.40;1.00
36924;DHT22;22841;50.252;18.688;2022-12-18T17:14:12;-8.50;1.00
36924;DHT22;22841;50.252;18.688;2022-12-18T17:16:39;-8.50;1.00
36924;DHT22;22841;50.252;18.688;2022-12-18T17:19:05;-8.70;1.00
36924;DHT22;22841;50.252;18.688;2022-12-18T17:21:31;-8.80;1.00
36924;DHT22;22841;50.252;18.688;2022-12-18T17:24:01;-8.80;1.00
36924;DHT22;22841;50.252;18.688;2022-12-18T17:26:28;-8.90;1.00
36924;DHT22;22841;50.252;18.688;2022-12-18T17:28:56;-8.90;1.00